Time;durP1;ratioP1;P1;durP2;ratioP2;P2;SDS_P1;SDS_P2;PMS_P1;PMS_P2;Temp;Humidity;BMP_temperature;BMP_pressure;BME280_temperature;BME280_humidity;BME280_pressure;Samples;Min_cycle;Max_cycle;Signal;HPM_P1;HPM_P2
2021/12/16 00:03:36;;;;;;;11.17;5.07;;;;;;;8.50;nan;101875.84;4893905;29;20433;-90
2021/12/16 00:06:23;;;;;;;14.77;5.90;;;;;;;8.48;nan;101880.59;4892563;29;20827;-90
2021/12/16 00:09:00;;;;;;;20.27;5.40;;;;;;;8.53;nan;101886.44;4906281;29;20468;-91
2021/12/16 00:34:15;;;;;;;20.27;9.17;;;;;;;8.30;nan;101879.66;4862460;29;20484;-91
2021/12/16 00:36:48;;;;;;;17.73;7.63;;;;;;;8.35;nan;101895.59;4831449;29;20471;-91
2021/12/16 00:39:33;;;;;;;20.20;8.90;;;;;;;8.35;nan;101895.59;4846663;29;20455;-90
2021/12/16 00:42:07;;;;;;;22.93;9.00;;;;;;;8.35;nan;101898.31;4831538;29;20455;-89
2021/12/16 00:57:13;;;;;;;9.73;6.03;;;;;;;8.38;nan;101895.28;4752879;30;20497;-90
2021/12/16 01:00:10;;;;;;;17.53;6.90;;;;;;;8.32;nan;101892.16;4752836;30;20461;-91
2021/12/16 01:50:09;;;;;;;8.90;5.00;;;;;;;7.93;nan;101874.22;4899867;29;20457;-91
2021/12/16 01:56:44;;;;;;;13.43;5.63;;;;;;;7.83;nan;101867.97;4899133;29;20496;-89
2021/12/16 01:59:18;;;;;;;7.53;3.97;;;;;;;7.81;nan;101873.56;4884663;29;20461;-89
2021/12/16 02:01:47;;;;;;;8.63;4.80;;;;;;;7.88;nan;101871.13;4884069;29;20504;-90
2021/12/16 02:04:25;;;;;;;8.43;3.70;;;;;;;7.86;nan;101870.41;4883444;29;20433;-90
2021/12/16 02:07:07;;;;;;;8.53;4.03;;;;;;;7.85;nan;101865.97;4884852;29;20960;-90
2021/12/16 02:09:41;;;;;;;8.83;4.53;;;;;;;7.85;nan;101864.09;4898383;29;20533;-91
2021/12/16 02:32:03;;;;;;;6.60;3.50;;;;;;;7.80;nan;101874.56;4898331;29;20517;-91
2021/12/16 02:37:49;;;;;;;9.20;4.20;;;;;;;7.78;nan;101882.03;4883625;29;20460;-92
2021/12/16 02:40:17;;;;;;;7.10;3.80;;;;;;;7.79;nan;101880.16;4897995;29;20480;-92
2021/12/16 02:43:04;;;;;;;5.80;3.40;;;;;;;7.75;nan;101867.84;4914432;29;20855;-90
2021/12/16 02:48:32;;;;;;;6.80;3.60;;;;;;;7.71;nan;101863.69;4885391;29;20845;-91
2021/12/16 02:51:19;;;;;;;6.50;3.10;;;;;;;7.77;nan;101876.72;4867288;29;20466;-91
2021/12/16 02:54:18;;;;;;;6.57;3.07;;;;;;;7.77;nan;101865.84;4867616;29;20449;-90
2021/12/16 02:56:47;;;;;;;6.97;3.67;;;;;;;7.79;nan;101867.41;4870140;29;20549;-91
2021/12/16 02:59:22;;;;;;;11.07;3.63;;;;;;;7.85;nan;101871.41;4882267;29;20960;-91
2021/12/16 03:02:08;;;;;;;7.93;3.50;;;;;;;7.84;nan;101866.97;4867669;29;20449;-91
2021/12/16 03:04:52;;;;;;;14.23;3.83;;;;;;;7.90;nan;101879.97;4868081;29;20929;-91
2021/12/16 03:07:22;;;;;;;9.33;3.23;;;;;;;7.90;nan;101879.97;4870557;29;20601;-91
2021/12/16 03:12:59;;;;;;;12.83;2.90;;;;;;;7.85;nan;101879.56;4859920;29;20531;-92
2021/12/16 03:15:50;;;;;;;12.70;3.07;;;;;;;7.84;nan;101877.84;4882248;29;20499;-92
2021/12/16 03:21:06;;;;;;;8.93;4.23;;;;;;;7.92;nan;101876.09;4882879;29;20454;-91
2021/12/16 03:23:55;;;;;;;10.90;3.30;;;;;;;7.91;nan;101860.75;4883122;29;20813;-91
2021/12/16 03:32:56;;;;;;;8.23;2.83;;;;;;;8.32;nan;101867.63;4883618;29;20553;-91
2021/12/16 03:35:39;;;;;;;9.37;2.40;;;;;;;8.47;nan;101858.94;4871393;29;20454;-91
2021/12/16 03:38:47;;;;;;;11.67;2.57;;;;;;;8.73;nan;101851.75;4885768;29;20457;-92
2021/12/16 03:41:39;;;;;;;10.50;2.43;;;;;;;8.95;nan;101848.56;4899683;29;20464;-91
2021/12/16 03:44:10;;;;;;;13.70;2.47;;;;;;;9.12;nan;101844.09;4896859;29;20496;-92
2021/12/16 03:46:49;;;;;;;7.63;2.10;;;;;;;9.27;nan;101844.41;4889294;29;20499;-91
2021/12/16 03:49:25;;;;;;;7.47;1.90;;;;;;;9.37;nan;101839.72;4888915;29;20464;-92
2021/12/16 03:52:47;;;;;;;9.93;2.30;;;;;;;9.53;nan;101839.81;4889396;29;20422;-92
2021/12/16 03:55:23;;;;;;;12.97;2.00;;;;;;;9.66;nan;101840.25;4919219;29;20468;-93
2021/12/16 04:05:29;;;;;;;7.37;2.00;;;;;;;9.65;nan;101815.84;4920375;29;20475;-91
2021/12/16 04:08:02;;;;;;;12.73;1.93;;;;;;;9.69;nan;101837.19;4888318;29;20460;-91
2021/12/16 04:18:04;;;;;;;12.87;1.80;;;;;;;9.56;nan;101836.78;4920198;29;20535;-92
2021/12/16 04:39:45;;;;;;;7.70;2.10;;;;;;;9.69;nan;101807.16;4919817;29;20404;-91
2021/12/16 04:42:36;;;;;;;8.83;1.87;;;;;;;9.84;nan;101836.59;4903202;29;20460;-90
2021/12/16 04:45:18;;;;;;;15.93;1.73;;;;;;;9.86;nan;101843.59;4888075;29;20464;-92
2021/12/16 04:47:53;;;;;;;6.30;2.00;;;;;;;9.85;nan;101830.97;4887019;29;20468;-92
2021/12/16 04:54:08;;;;;;;7.73;2.20;;;;;;;9.69;nan;101814.50;4919511;29;20404;-91
2021/12/16 04:57:25;;;;;;;6.03;1.50;;;;;;;9.81;nan;101828.75;4888167;29;20449;-90
2021/12/16 04:59:55;;;;;;;9.23;2.10;;;;;;;9.74;nan;101819.47;4918353;29;20456;-90
2021/12/16 05:06:09;;;;;;;8.50;1.90;;;;;;;9.86;nan;101813.56;4919730;29;20491;-91
2021/12/16 05:16:10;;;;;;;6.73;1.87;;;;;;;9.98;nan;101801.34;4900395;29;20417;-91
2021/12/16 05:18:42;;;;;;;6.37;1.70;;;;;;;10.12;nan;101819.00;4854058;29;20450;-92
2021/12/16 05:31:38;;;;;;;7.40;1.80;;;;;;;10.18;nan;101818.34;4899810;29;20398;-90
2021/12/16 05:34:58;;;;;;;6.67;1.67;;;;;;;10.16;nan;101830.44;4887195;29;20457;-90
2021/12/16 05:37:27;;;;;;;7.10;1.80;;;;;;;10.09;nan;101824.78;4918497;29;20464;-91
2021/12/16 05:39:56;;;;;;;4.90;2.10;;;;;;;9.96;nan;101813.47;4887405;29;20436;-91
2021/12/16 05:42:25;;;;;;;6.67;1.70;;;;;;;9.98;nan;101827.81;4903457;29;20485;-90
2021/12/16 05:44:54;;;;;;;2.70;1.40;;;;;;;9.91;nan;101821.28;4854100;29;20508;-90
2021/12/16 05:47:23;;;;;;;6.40;1.40;;;;;;;9.86;nan;101827.22;4852941;29;20493;-91
2021/12/16 05:49:57;;;;;;;5.20;1.60;;;;;;;9.79;nan;101831.63;4852935;29;20446;-91
2021/12/16 05:56:36;;;;;;;4.37;1.40;;;;;;;9.65;nan;101833.06;4899538;29;20453;-90
2021/12/16 05:59:13;;;;;;;5.07;1.57;;;;;;;9.55;nan;101834.22;4867624;29;20464;-91
2021/12/16 06:28:23;;;;;;;5.33;1.73;;;;;;;9.12;nan;101848.72;4899156;29;20816;-90
2021/12/16 06:34:34;;;;;;;3.43;1.60;;;;;;;9.12;nan;101857.75;4898890;29;20453;-90
2021/12/16 06:44:40;;;;;;;4.33;2.57;;;;;;;9.13;nan;101864.06;4907122;29;20497;-90
2021/12/16 06:47:17;;;;;;;5.50;2.10;;;;;;;9.10;nan;101876.13;4869287;29;20525;-90
2021/12/16 06:49:47;;;;;;;5.03;2.00;;;;;;;8.95;nan;101867.66;4812267;29;20834;-90
2021/12/16 06:52:23;;;;;;;3.30;1.80;;;;;;;8.91;nan;101868.97;4826925;29;20469;-90
2021/12/16 06:57:34;;;;;;;4.77;2.30;;;;;;;8.79;nan;101872.09;4826527;29;20464;-90
2021/12/16 07:00:16;;;;;;;5.80;1.70;;;;;;;8.79;nan;101874.81;4828359;29;20919;-91
2021/12/16 07:02:58;;;;;;;5.27;1.90;;;;;;;8.72;nan;101876.44;4841493;29;20956;-90
2021/12/16 07:05:40;;;;;;;6.80;1.67;;;;;;;8.68;nan;101889.50;4841533;29;20453;-90
2021/12/16 07:08:36;;;;;;;9.33;1.70;;;;;;;8.64;nan;101888.13;4860666;29;20458;-94
2021/12/16 07:15:38;;;;;;;4.60;2.50;;;;;;;8.51;nan;101890.31;4902415;29;20470;-92
2021/12/16 07:18:06;;;;;;;3.10;1.43;;;;;;;8.37;nan;101882.66;4901410;29;20540;-91
2021/12/16 07:20:51;;;;;;;4.50;2.00;;;;;;;8.38;nan;101895.28;4855088;29;20992;-92
2021/12/16 07:24:16;;;;;;;7.50;2.37;;;;;;;8.34;nan;101900.16;4871499;29;20468;-91
2021/12/16 07:35:15;;;;;;;2.13;1.73;;;;;;;8.26;nan;101892.75;4902192;29;20433;-93
2021/12/16 07:37:46;;;;;;;2.90;1.57;;;;;;;8.02;nan;101894.28;4900538;29;20473;-92
2021/12/16 07:40:22;;;;;;;5.97;2.00;;;;;;;8.06;nan;101902.00;4869773;29;20457;-93
2021/12/16 07:46:34;;;;;;;3.77;1.50;;;;;;;8.07;nan;101892.81;4926884;28;20482;-91
2021/12/16 07:49:27;;;;;;;3.30;1.67;;;;;;;8.09;nan;101901.66;4871450;29;20459;-92
2021/12/16 07:59:29;;;;;;;5.93;2.23;;;;;;;7.94;nan;101901.31;4901768;29;20429;-90
2021/12/16 08:06:22;;;;;;;5.27;2.37;;;;;;;7.96;nan;101902.00;4901833;29;20546;-95
2021/12/16 08:08:52;;;;;;;8.07;2.00;;;;;;;7.96;nan;101891.13;4900670;29;20457;-87
2021/12/16 08:11:19;;;;;;;3.90;2.23;;;;;;;8.01;nan;101896.13;4868665;29;20457;-86
2021/12/16 08:13:47;;;;;;;17.60;4.90;;;;;;;8.09;nan;101896.22;4868662;29;20835;-87
2021/12/16 08:16:16;;;;;;;15.80;6.43;;;;;;;8.21;nan;101896.91;4816210;29;20462;-86
2021/12/16 08:18:44;;;;;;;13.77;4.70;;;;;;;8.22;nan;101896.75;4846256;29;20456;-87
2021/12/16 08:21:12;;;;;;;6.73;3.30;;;;;;;8.20;nan;101871.53;4846434;29;20452;-88
2021/12/16 08:24:03;;;;;;;22.13;3.47;;;;;;;8.43;nan;101892.97;4763103;29;20523;-91
2021/12/16 08:26:31;;;;;;;14.30;3.60;;;;;;;8.40;nan;101887.81;4776829;29;20481;-94
2021/12/16 08:29:00;;;;;;;10.73;3.03;;;;;;;8.37;nan;101875.34;4763425;29;20458;-94
2021/12/16 08:31:28;;;;;;;5.87;2.13;;;;;;;8.50;nan;101894.06;4777741;29;20451;-94
2021/12/16 08:33:57;;;;;;;5.23;2.80;;;;;;;8.51;nan;101895.78;4783950;29;20820;-92
2021/12/16 08:36:25;;;;;;;7.50;2.10;;;;;;;8.53;nan;101900.06;4850387;29;20450;-93
2021/12/16 08:38:56;;;;;;;5.13;2.20;;;;;;;8.56;nan;101893.47;4838574;29;20454;-91
2021/12/16 08:41:30;;;;;;;16.77;2.73;;;;;;;8.63;nan;101891.84;4883102;29;20444;-91
2021/12/16 08:43:58;;;;;;;4.70;2.50;;;;;;;8.76;nan;101895.06;4890975;29;20441;-91
2021/12/16 08:46:28;;;;;;;9.03;2.33;;;;;;;8.83;nan;101889.84;4890391;29;20577;-92
2021/12/16 08:48:56;;;;;;;10.50;3.33;;;;;;;8.88;nan;101885.63;4925562;29;20472;-91
2021/12/16 08:51:29;;;;;;;6.67;2.67;;;;;;;9.08;nan;101904.56;4910610;29;20463;-90
2021/12/16 08:53:58;;;;;;;9.17;3.27;;;;;;;9.10;nan;101891.63;4926870;29;20455;-91
2021/12/16 08:56:27;;;;;;;7.43;3.20;;;;;;;9.25;nan;101912.75;4894387;29;20977;-90
2021/12/16 08:58:56;;;;;;;6.80;2.40;;;;;;;9.31;nan;101903.09;4907438;29;20502;-91
2021/12/16 09:01:26;;;;;;;7.33;3.33;;;;;;;9.35;nan;101890.84;4890966;29;20448;-90
2021/12/16 09:03:55;;;;;;;9.17;3.50;;;;;;;9.55;nan;101905.16;4891608;29;20449;-90
2021/12/16 09:06:23;;;;;;;9.17;4.33;;;;;;;9.68;nan;101908.31;4890683;29;20483;-91
2021/12/16 09:08:51;;;;;;;5.63;2.77;;;;;;;9.84;nan;101916.63;4890976;29;20448;-92
2021/12/16 09:11:22;;;;;;;19.40;2.57;;;;;;;9.93;nan;101895.69;4890463;29;20463;-91
2021/12/16 09:13:57;;;;;;;9.33;2.13;;;;;;;10.15;nan;101911.53;4891391;29;20451;-92
2021/12/16 09:16:30;;;;;;;7.63;1.80;;;;;;;10.37;nan;101910.16;4890998;29;20466;-92
2021/12/16 09:18:58;;;;;;;6.97;1.80;;;;;;;10.57;nan;101908.00;4922406;29;20460;-92
2021/12/16 09:21:28;;;;;;;8.67;2.27;;;;;;;10.82;nan;101904.31;4890514;29;20460;-92
2021/12/16 09:23:58;;;;;;;2.93;1.20;;;;;;;11.07;nan;101914.28;4890877;29;20450;-91
2021/12/16 09:26:26;;;;;;;7.07;1.53;;;;;;;11.27;nan;101909.34;4906072;29;20494;-90
2021/12/16 09:28:54;;;;;;;6.10;1.27;;;;;;;11.51;nan;101914.00;4890529;29;20456;-92
2021/12/16 09:31:23;;;;;;;3.40;1.40;;;;;;;11.69;nan;101914.66;4890538;29;20460;-92
2021/12/16 09:33:52;;;;;;;8.00;1.93;;;;;;;11.83;nan;101920.50;4890153;29;20448;-90
2021/12/16 09:36:27;;;;;;;11.43;1.60;;;;;;;11.91;nan;101906.81;4891556;29;20462;-91
2021/12/16 09:38:57;;;;;;;6.10;1.60;;;;;;;12.12;nan;101915.31;4920880;29;20454;-92
2021/12/16 09:41:27;;;;;;;3.77;1.50;;;;;;;12.21;nan;101902.44;4890527;29;20512;-91
2021/12/16 09:43:59;;;;;;;5.77;1.33;;;;;;;12.30;nan;101907.72;4921875;29;20455;-93
2021/12/16 09:46:28;;;;;;;6.83;2.37;;;;;;;12.52;nan;101924.41;4905579;29;20854;-91
2021/12/16 09:48:56;;;;;;;7.00;1.93;;;;;;;12.67;nan;101920.75;4890070;29;21006;-90
2021/12/16 09:51:32;;;;;;;8.50;3.10;;;;;;;12.73;nan;101919.16;4890710;29;20444;-91
2021/12/16 09:54:03;;;;;;;3.80;1.60;;;;;;;12.84;nan;101934.38;4890272;29;20452;-92
2021/12/16 10:00:23;;;;;;;9.10;1.90;;;;;;;13.07;nan;101933.41;4937717;29;20420;-92
2021/12/16 10:02:51;;;;;;;3.10;1.10;;;;;;;13.14;nan;101917.91;4890736;29;20452;-94
2021/12/16 10:05:19;;;;;;;7.17;1.73;;;;;;;13.26;nan;101932.09;4892705;29;20596;-94
2021/12/16 10:07:48;;;;;;;8.47;1.20;;;;;;;13.40;nan;101941.44;4890996;29;20482;-94
2021/12/16 10:10:18;;;;;;;6.30;1.60;;;;;;;13.44;nan;101938.16;4906014;29;20519;-93
2021/12/16 10:12:51;;;;;;;4.40;1.13;;;;;;;13.50;nan;101928.31;4892411;29;20459;-94
2021/12/16 10:18:04;;;;;;;18.70;1.73;;;;;;;13.74;nan;101950.09;4915804;29;20503;-92
2021/12/16 10:24:32;;;;;;;7.80;1.40;;;;;;;14.12;nan;101939.91;4945173;29;20399;-91
2021/12/16 10:27:07;;;;;;;3.00;0.80;;;;;;;14.31;nan;101949.50;4906844;29;20487;-90
2021/12/16 10:30:04;;;;;;;8.77;2.00;;;;;;;14.32;nan;101934.72;4937260;29;20443;-91
2021/12/16 10:32:41;;;;;;;4.60;2.07;;;;;;;14.45;nan;101945.94;4920740;29;20515;-90
2021/12/16 10:35:16;;;;;;;4.60;1.57;;;;;;;14.56;nan;101952.03;4897853;29;21528;-92
2021/12/16 10:37:52;;;;;;;4.40;1.27;;;;;;;14.65;nan;101940.72;4912715;29;20448;-92
2021/12/16 10:40:27;;;;;;;3.73;1.00;;;;;;;14.80;nan;101940.72;4892545;29;20447;-91
2021/12/16 10:42:56;;;;;;;2.00;1.10;;;;;;;14.81;nan;101940.53;4926572;29;20808;-91
2021/12/16 10:45:36;;;;;;;7.97;0.93;;;;;;;14.94;nan;101934.31;4890379;29;20452;-91
2021/12/16 10:48:14;;;;;;;3.03;1.20;;;;;;;15.07;nan;101928.97;4894422;29;20491;-92
2021/12/16 10:50:53;;;;;;;2.80;0.90;;;;;;;15.13;nan;101935.59;4940676;29;20456;-90
2021/12/16 10:53:49;;;;;;;12.83;1.87;;;;;;;15.24;nan;101934.22;4924348;29;20459;-91
2021/12/16 10:56:18;;;;;;;5.20;1.20;;;;;;;15.28;nan;101919.88;4924452;29;20451;-92
2021/12/16 10:58:57;;;;;;;7.13;1.93;;;;;;;15.45;nan;101931.47;4909158;29;20455;-91
2021/12/16 11:01:32;;;;;;;2.87;0.90;;;;;;;15.49;nan;101930.03;4925053;29;20511;-91
2021/12/16 11:04:03;;;;;;;6.90;1.63;;;;;;;15.49;nan;101914.34;4909941;29;20526;-91
2021/12/16 11:06:54;;;;;;;4.80;0.90;;;;;;;15.60;nan;101906.63;4908695;29;20952;-92
2021/12/16 11:09:43;;;;;;;5.20;1.10;;;;;;;15.73;nan;101921.41;4924394;29;20448;-92
2021/12/16 11:12:49;;;;;;;3.33;1.20;;;;;;;15.80;nan;101933.31;4940146;29;20460;-91
2021/12/16 11:15:28;;;;;;;4.97;0.93;;;;;;;15.91;nan;101920.06;4920768;29;20868;-91
2021/12/16 11:21:43;;;;;;;3.97;1.33;;;;;;;15.91;nan;101903.50;4940906;29;20387;-91
2021/12/16 11:24:23;;;;;;;1.50;0.90;;;;;;;16.09;nan;101906.63;4892843;29;20463;-93
2021/12/16 11:26:52;;;;;;;6.53;1.30;;;;;;;16.38;nan;101905.50;4908710;29;20894;-91
2021/12/16 11:33:51;;;;;;;4.40;1.07;;;;;;;16.88;nan;101896.88;4940792;29;20443;-94
2021/12/16 11:36:21;;;;;;;2.63;1.30;;;;;;;16.99;nan;101895.41;4938548;29;20483;-94
2021/12/16 11:38:54;;;;;;;8.30;1.40;;;;;;;16.99;nan;101887.13;4929833;28;20438;-94
2021/12/16 11:41:28;;;;;;;7.23;1.50;;;;;;;17.00;nan;101901.78;4929312;29;20455;-94
2021/12/16 11:44:18;;;;;;;3.90;1.50;;;;;;;16.83;nan;101876.44;4908846;29;20516;-94
2021/12/16 11:47:11;;;;;;;7.00;1.50;;;;;;;16.72;nan;101872.38;4819131;29;20491;-94
2021/12/16 11:49:41;;;;;;;5.90;1.50;;;;;;;16.71;nan;101878.97;4830502;29;20486;-95
2021/12/16 11:52:16;;;;;;;3.20;2.00;;;;;;;16.74;nan;101883.22;4816277;29;21120;-94
2021/12/16 11:55:01;;;;;;;10.70;1.60;;;;;;;16.64;nan;101871.72;4845501;29;20466;-94
2021/12/16 11:57:43;;;;;;;4.20;1.57;;;;;;;16.69;nan;101866.44;4813862;29;20557;-94
2021/12/16 12:00:16;;;;;;;6.63;1.37;;;;;;;16.78;nan;101868.78;4829762;29;20545;-93
2021/12/16 12:02:51;;;;;;;4.43;1.60;;;;;;;16.81;nan;101873.88;4814546;29;20676;-95
2021/12/16 12:05:29;;;;;;;6.43;1.30;;;;;;;16.78;nan;101863.25;4844051;29;20459;-94
2021/12/16 12:08:02;;;;;;;4.00;1.60;;;;;;;16.75;nan;101854.53;4829398;29;20491;-95
2021/12/16 12:10:41;;;;;;;5.97;2.23;;;;;;;16.89;nan;101859.06;4814409;29;20461;-94
2021/12/16 12:13:18;;;;;;;6.57;2.13;;;;;;;17.03;nan;101835.94;4829076;29;20501;-95
2021/12/16 12:16:01;;;;;;;4.67;1.00;;;;;;;17.18;nan;101820.00;4793469;29;20458;-95
2021/12/16 12:18:31;;;;;;;9.93;2.10;;;;;;;17.43;nan;101834.06;4794912;29;20474;-94
2021/12/16 12:21:50;;;;;;;11.03;1.40;;;;;;;17.44;nan;101818.31;4779206;29;20880;-94
2021/12/16 12:24:32;;;;;;;2.07;1.07;;;;;;;17.49;nan;101829.59;4780200;29;20466;-95
2021/12/16 12:27:23;;;;;;;4.20;1.60;;;;;;;17.44;nan;101823.84;4779508;29;20482;-93
2021/12/16 12:29:58;;;;;;;4.17;1.30;;;;;;;17.29;nan;101810.25;4792104;29;20469;-95
2021/12/16 12:32:28;;;;;;;2.40;1.07;;;;;;;17.19;nan;101821.72;4777892;29;20458;-95
2021/12/16 12:34:59;;;;;;;11.20;1.40;;;;;;;17.20;nan;101820.66;4830230;29;20469;-95
2021/12/16 12:37:28;;;;;;;9.30;1.70;;;;;;;17.14;nan;101818.72;4850133;29;20459;-95
2021/12/16 12:40:05;;;;;;;4.07;1.50;;;;;;;17.14;nan;101817.88;4830255;29;20987;-95
2021/12/16 12:42:35;;;;;;;3.73;1.20;;;;;;;17.04;nan;101798.09;4813928;29;20574;-94
2021/12/16 12:45:06;;;;;;;5.27;1.40;;;;;;;17.09;nan;101810.22;4828751;29;20464;-94
2021/12/16 12:47:40;;;;;;;5.43;1.50;;;;;;;17.13;nan;101803.19;4836272;29;20509;-94
2021/12/16 12:50:18;;;;;;;8.13;1.33;;;;;;;17.20;nan;101805.97;4811863;29;20522;-93
2021/12/16 12:52:49;;;;;;;6.77;3.03;;;;;;;17.17;nan;101807.25;4795726;29;20564;-95
2021/12/16 12:55:29;;;;;;;8.17;1.50;;;;;;;17.14;nan;101801.28;4796596;29;20464;-95
2021/12/16 12:58:05;;;;;;;4.93;1.90;;;;;;;17.00;nan;101792.16;4844607;29;20456;-94
2021/12/16 13:00:36;;;;;;;8.10;1.73;;;;;;;17.06;nan;101807.03;4872512;29;20460;-95
2021/12/16 13:03:11;;;;;;;9.60;1.93;;;;;;;17.05;nan;101795.13;4887627;29;20524;-95
2021/12/16 13:05:39;;;;;;;6.30;1.80;;;;;;;16.95;nan;101786.41;4902871;29;20460;-94
2021/12/16 13:12:26;;;;;;;4.67;1.90;;;;;;;16.85;nan;101780.44;4919513;29;20422;-94
2021/12/16 13:27:45;;;;;;;15.40;2.07;;;;;;;16.70;nan;101766.84;4903874;29;20920;-91
2021/12/16 13:30:22;;;;;;;6.77;1.73;;;;;;;16.80;nan;101752.59;4834853;29;20457;-91
2021/12/16 13:33:18;;;;;;;4.70;1.57;;;;;;;17.09;nan;101751.38;4864179;29;20462;-92
2021/12/16 13:35:50;;;;;;;3.00;1.27;;;;;;;17.29;nan;101748.59;4864113;29;20451;-92
2021/12/16 13:38:20;;;;;;;13.60;2.43;;;;;;;17.54;nan;101735.78;4849223;29;20462;-91
2021/12/16 13:40:49;;;;;;;6.20;1.80;;;;;;;17.91;nan;101739.78;4864069;29;20455;-91
2021/12/16 13:43:26;;;;;;;7.60;1.93;;;;;;;18.12;nan;101746.94;4849186;29;20996;-92
2021/12/16 14:02:47;;;;;;;10.70;2.37;;;;;;;18.81;nan;101715.72;4918571;29;20445;-93
2021/12/16 14:05:25;;;;;;;9.37;1.90;;;;;;;18.84;nan;101720.81;4878074;29;20437;-91
2021/12/16 14:08:10;;;;;;;5.77;1.77;;;;;;;18.49;nan;101712.88;4890774;29;20544;-91
2021/12/16 14:39:54;;;;;;;9.80;1.67;;;;;;;17.80;nan;101708.13;4853862;29;20466;-93
2021/12/16 14:48:02;;;;;;;8.10;1.70;;;;;;;18.00;nan;101701.66;4864690;29;20482;-91
2021/12/16 14:50:41;;;;;;;19.27;1.77;;;;;;;17.82;nan;101697.69;4850920;29;20450;-91
2021/12/16 14:53:25;;;;;;;6.33;1.77;;;;;;;17.69;nan;101706.03;4848990;29;20946;-93
2021/12/16 14:56:09;;;;;;;12.40;2.47;;;;;;;17.53;nan;101695.41;4874331;29;20455;-92
2021/12/16 14:58:39;;;;;;;6.40;2.00;;;;;;;17.41;nan;101694.38;4890314;29;20447;-93
2021/12/16 15:01:14;;;;;;;7.27;1.70;;;;;;;17.34;nan;101683.31;4905295;29;20502;-92
2021/12/16 15:03:43;;;;;;;6.07;1.60;;;;;;;17.39;nan;101699.25;4889612;29;20448;-91
2021/12/16 15:06:21;;;;;;;8.57;2.60;;;;;;;17.40;nan;101690.75;4889540;29;20798;-92
2021/12/16 15:09:12;;;;;;;9.57;2.40;;;;;;;17.49;nan;101689.47;4918659;29;20488;-94
2021/12/16 15:12:05;;;;;;;6.57;1.70;;;;;;;17.65;nan;101687.34;4893152;29;21038;-92
2021/12/16 15:37:35;;;;;;;8.50;2.07;;;;;;;18.00;nan;101672.09;4926409;29;20439;-94
2021/12/16 15:45:38;;;;;;;5.53;1.57;;;;;;;17.55;nan;101682.22;4913748;29;20463;-94
2021/12/16 15:48:17;;;;;;;11.57;2.70;;;;;;;17.53;nan;101674.13;4907026;29;20503;-93
2021/12/16 15:50:56;;;;;;;7.37;2.17;;;;;;;17.54;nan;101674.97;4893099;29;20452;-94
2021/12/16 15:53:30;;;;;;;12.53;2.37;;;;;;;17.48;nan;101671.19;4908415;29;20451;-92
2021/12/16 15:56:05;;;;;;;7.50;1.80;;;;;;;17.28;nan;101686.97;4891822;29;20464;-94
2021/12/16 15:58:43;;;;;;;15.47;3.10;;;;;;;17.14;nan;101685.25;4908263;29;20555;-92
2021/12/16 16:01:34;;;;;;;14.53;2.83;;;;;;;17.02;nan;101686.97;4922921;29;20962;-93
2021/12/16 16:04:25;;;;;;;10.93;1.60;;;;;;;16.93;nan;101686.38;4906273;29;20440;-93
2021/12/16 16:06:57;;;;;;;6.20;1.50;;;;;;;16.93;nan;101695.47;4924337;29;20994;-93
2021/12/16 16:09:27;;;;;;;10.53;2.20;;;;;;;16.84;nan;101679.34;4891375;29;20502;-91
2021/12/16 16:11:56;;;;;;;12.47;2.70;;;;;;;16.83;nan;101678.50;4891608;29;20452;-94
2021/12/16 16:14:28;;;;;;;6.60;1.70;;;;;;;16.98;nan;101696.75;4890731;29;20460;-92
2021/12/16 16:16:59;;;;;;;8.13;1.80;;;;;;;17.05;nan;101692.94;4920321;29;20456;-93
2021/12/16 16:19:32;;;;;;;9.37;2.07;;;;;;;17.07;nan;101688.06;4891466;29;20470;-93
2021/12/16 16:22:03;;;;;;;6.10;2.03;;;;;;;17.16;nan;101694.19;4891453;29;20456;-94
2021/12/16 16:24:33;;;;;;;11.27;2.90;;;;;;;17.09;nan;101685.94;4891319;29;20959;-92
2021/12/16 16:27:07;;;;;;;6.30;1.70;;;;;;;17.14;nan;101696.31;4890714;29;20564;-94
2021/12/16 16:29:35;;;;;;;8.47;1.97;;;;;;;17.07;nan;101681.69;4891292;29;20529;-93
2021/12/16 16:32:04;;;;;;;10.30;2.40;;;;;;;16.94;nan;101685.28;4891197;29;20456;-93
2021/12/16 16:34:40;;;;;;;5.33;1.50;;;;;;;16.89;nan;101693.38;4906553;29;20459;-93
2021/12/16 16:37:08;;;;;;;7.93;1.70;;;;;;;16.77;nan;101693.13;4906886;29;20459;-93
2021/12/16 16:39:38;;;;;;;13.57;1.87;;;;;;;16.64;nan;101690.38;4907380;29;20961;-93
2021/12/16 16:42:11;;;;;;;19.07;3.47;;;;;;;16.52;nan;101686.50;4906155;29;20541;-91
2021/12/16 16:44:53;;;;;;;16.07;2.10;;;;;;;16.45;nan;101692.00;4909809;29;20454;-92
2021/12/16 16:47:39;;;;;;;12.13;2.20;;;;;;;16.35;nan;101699.84;4906791;29;20498;-92
2021/12/16 16:50:09;;;;;;;14.40;2.73;;;;;;;16.20;nan;101694.47;4875247;29;20462;-93
2021/12/16 16:52:43;;;;;;;7.63;2.07;;;;;;;16.06;nan;101694.66;4861465;29;20466;-92
2021/12/16 16:55:22;;;;;;;12.73;3.30;;;;;;;15.95;nan;101706.28;4862330;29;20464;-96
2021/12/16 16:57:55;;;;;;;23.73;8.87;;;;;;;15.87;nan;101705.41;4845802;29;21061;-92
2021/12/16 17:00:25;;;;;;;14.57;6.20;;;;;;;15.83;nan;101715.13;4861986;29;20463;-92
2021/12/16 17:02:59;;;;;;;5.90;2.60;;;;;;;15.68;nan;101706.16;4876896;29;20460;-93
2021/12/16 17:05:33;;;;;;;16.07;4.47;;;;;;;15.70;nan;101714.22;4861696;29;20978;-93
2021/12/16 17:08:09;;;;;;;17.53;7.40;;;;;;;15.66;nan;101730.31;4883103;29;20502;-94
2021/12/16 17:10:44;;;;;;;5.80;3.07;;;;;;;15.59;nan;101729.41;4906029;29;20464;-93
2021/12/16 17:13:20;;;;;;;17.67;6.07;;;;;;;15.56;nan;101729.00;4921470;29;20511;-92
2021/12/16 17:18:46;;;;;;;27.53;15.03;;;;;;;15.39;nan;101706.38;4936822;29;20455;-93
2021/12/16 17:21:18;;;;;;;12.57;4.80;;;;;;;15.42;nan;101730.75;4936823;29;20448;-93
2021/12/16 17:23:50;;;;;;;20.23;4.07;;;;;;;15.32;nan;101720.09;4906555;29;20562;-91
2021/12/16 17:26:28;;;;;;;10.97;3.23;;;;;;;15.35;nan;101738.13;4921616;29;20522;-93
2021/12/16 17:28:58;;;;;;;8.73;4.03;;;;;;;15.34;nan;101742.78;4922156;29;20970;-91
2021/12/16 17:31:33;;;;;;;20.57;3.37;;;;;;;15.28;nan;101742.72;4921721;29;20452;-91
2021/12/16 17:34:15;;;;;;;7.67;3.10;;;;;;;15.17;nan;101733.97;4921846;29;20443;-93
2021/12/16 17:36:44;;;;;;;8.93;2.70;;;;;;;15.17;nan;101749.66;4907744;29;20541;-92
2021/12/16 17:39:14;;;;;;;6.30;3.17;;;;;;;15.08;nan;101737.91;4921295;29;20467;-91
2021/12/16 17:41:41;;;;;;;13.90;4.50;;;;;;;15.13;nan;101751.09;4936804;29;20447;-91
2021/12/16 17:44:12;;;;;;;9.23;3.40;;;;;;;15.10;nan;101755.09;4905722;29;20464;-92
2021/12/16 17:46:42;;;;;;;13.13;4.10;;;;;;;15.04;nan;101744.88;4936993;29;20491;-92
2021/12/16 17:49:10;;;;;;;14.73;4.83;;;;;;;15.06;nan;101751.03;4936874;29;20500;-93
2021/12/16 17:51:40;;;;;;;12.53;2.70;;;;;;;15.01;nan;101747.19;4908264;29;20459;-90
2021/12/16 17:54:09;;;;;;;12.77;5.40;;;;;;;14.97;nan;101743.13;4926641;29;21022;-91
2021/12/16 17:56:37;;;;;;;10.57;3.63;;;;;;;15.02;nan;101765.38;4957727;28;20452;-91
2021/12/16 17:59:08;;;;;;;11.30;4.60;;;;;;;14.99;nan;101763.06;4925301;28;20452;-91
2021/12/16 18:01:40;;;;;;;14.90;4.17;;;;;;;14.97;nan;101763.25;4905565;29;20451;-90
2021/12/16 18:04:16;;;;;;;13.03;3.50;;;;;;;14.88;nan;101752.56;4905565;29;20467;-91
2021/12/16 18:06:53;;;;;;;14.33;4.47;;;;;;;14.88;nan;101758.06;4921505;29;20452;-90
2021/12/16 18:09:32;;;;;;;13.90;5.50;;;;;;;14.86;nan;101759.09;4921203;29;20491;-90
2021/12/16 18:12:09;;;;;;;12.27;4.50;;;;;;;14.89;nan;101765.28;4920625;29;20456;-91
2021/12/16 18:18:13;;;;;;;13.07;3.20;;;;;;;14.82;nan;101748.69;4915748;29;20455;-92
2021/12/16 18:20:47;;;;;;;16.13;3.60;;;;;;;14.78;nan;101747.41;4905597;29;20478;-91
2021/12/16 18:23:26;;;;;;;7.23;2.80;;;;;;;14.82;nan;101751.44;4905231;29;20949;-92
2021/12/16 18:25:55;;;;;;;8.93;2.80;;;;;;;14.85;nan;101760.16;4891034;29;20448;-91
2021/12/16 18:28:32;;;;;;;8.50;3.40;;;;;;;14.88;nan;101760.81;4889553;29;20456;-92
2021/12/16 18:34:52;;;;;;;14.70;3.33;;;;;;;14.75;nan;101745.88;4897619;29;20446;-92
2021/12/16 18:37:20;;;;;;;10.80;4.83;;;;;;;14.77;nan;101754.81;4882432;29;20469;-91
2021/12/16 18:39:49;;;;;;;11.97;4.00;;;;;;;14.71;nan;101752.81;4851367;29;20464;-91
2021/12/16 18:42:19;;;;;;;15.50;6.00;;;;;;;14.76;nan;101772.34;4866496;29;20469;-91
2021/12/16 18:44:50;;;;;;;10.60;3.90;;;;;;;14.77;nan;101770.47;4866734;29;20494;-91
2021/12/16 18:47:37;;;;;;;9.37;3.67;;;;;;;14.77;nan;101775.97;4851345;29;20450;-90